KACK/ACK METAR and TAF weather

Enter ICAO airport designator
Station Type Date Time Source
KACK METAR 2020/10/20 16:53 UTC NOAA

KACK 201653Z 13010KT 10SM OVC006 16/14 A3025 RMK AO2 CIG 004V008 SLP244 T01610144


Station Type Date Time Source
KACK Decoded METAR 2020/10/20 16:53 UTC NOAA

NANTUCKET MEMORIAL AIRPORT, MA, United States (KACK) 41-15N 70-04W 16M
Oct 20, 2020 - 12:53 PM EDT / 2020.10.20 1653 UTC
Wind: from the SE (130 degrees) at 12 MPH (10 KT):0
Visibility: 10 mile(s):0
Sky conditions: overcast
Temperature: 61.0 F (16.1 C)
Dew Point: 57.9 F (14.4 C)
Relative Humidity: 89%
Pressure (altimeter): 30.25 in. Hg (1024 hPa)
ob: KACK 201653Z 13010KT 10SM OVC006 16/14 A3025 RMK AO2 CIG 004V008 SLP244 T01610144
cycle: 17

Station Type Date Time Source
KACK TAF 2020/10/20 13:09 UTC NOAA

TAF
AMD KACK 201306Z 2013/2112 15008KT P6SM BKN004 OVC008
FM201430 16008KT 6SM -SHRA BR VCTS SCT004 OVC008CB
FM201800 17009KT 1SM BR OVC008
FM202200 19007KT 1SM BR VCSH OVC003
FM211100 18006KT P6SM OVC008

Example: see airport list